Time;durP1;ratioP1;P1;durP2;ratioP2;P2;SDS_P1;SDS_P2;PMS_P1;PMS_P2;Temp;Humidity;BMP_temperature;BMP_pressure;BME280_temperature;BME280_humidity;BME280_pressure;Samples;Min_cycle;Max_cycle;Signal;HPM_P1;HPM_P2
2022/09/27 00:00:59;;;;;;;2.55;1.17;;;10.10;99.90;;;;;;5081346;28;20469;-77
2022/09/27 00:03:25;;;;;;;2.90;1.58;;;10.10;99.90;;;;;;5068613;28;20029;-77
2022/09/27 00:06:04;;;;;;;2.30;1.15;;;10.10;99.90;;;;;;5052111;28;20045;-77
2022/09/27 00:08:31;;;;;;;2.22;1.23;;;10.10;99.90;;;;;;5064829;28;20032;-77
2022/09/27 00:11:05;;;;;;;2.97;1.60;;;10.10;99.90;;;;;;5053518;28;20059;-78
2022/09/27 00:13:32;;;;;;;3.05;1.65;;;10.10;99.90;;;;;;5065636;28;20032;-78
2022/09/27 00:15:59;;;;;;;3.58;1.50;;;10.10;99.90;;;;;;5052947;28;20025;-77
2022/09/27 00:18:26;;;;;;;5.50;2.80;;;10.10;99.90;;;;;;5046826;28;20032;-77
2022/09/27 00:20:52;;;;;;;8.23;2.75;;;10.10;99.90;;;;;;5071777;28;20024;-77
2022/09/27 00:23:19;;;;;;;4.35;2.70;;;10.10;99.90;;;;;;5071513;28;20024;-82
2022/09/27 00:25:58;;;;;;;5.30;3.03;;;10.20;99.90;;;;;;5071565;28;20487;-78
2022/09/27 00:28:25;;;;;;;6.13;3.03;;;10.10;99.90;;;;;;5065640;28;20024;-79
2022/09/27 00:30:52;;;;;;;7.93;4.20;;;10.10;99.90;;;;;;5074055;28;20025;-79
2022/09/27 00:33:19;;;;;;;5.47;3.40;;;10.10;99.90;;;;;;5069626;28;20025;-87
2022/09/27 00:35:45;;;;;;;6.15;3.80;;;10.10;99.90;;;;;;5074708;28;20377;-77
2022/09/27 00:38:12;;;;;;;5.35;2.80;;;10.10;99.90;;;;;;5075904;28;20131;-77
2022/09/27 00:40:39;;;;;;;4.50;2.60;;;10.10;99.90;;;;;;5071023;28;20309;-77
2022/09/27 00:43:23;;;;;;;5.18;3.13;;;10.10;99.90;;;;;;5075914;28;20039;-76
2022/09/27 00:46:01;;;;;;;7.68;3.17;;;10.10;99.90;;;;;;5056835;28;20031;-77
2022/09/27 00:48:31;;;;;;;5.80;3.47;;;10.10;99.90;;;;;;5075358;28;20039;-79
2022/09/27 00:51:02;;;;;;;7.10;3.67;;;10.10;99.90;;;;;;5076047;28;20035;-77
2022/09/27 00:53:28;;;;;;;;;;;10.00;99.90;;;;;;5075818;28;20028;-77
2022/09/27 00:55:58;;;;;;;8.57;4.53;;;10.10;99.90;;;;;;5074461;28;20242;-77
2022/09/27 00:58:31;;;;;;;6.97;4.40;;;10.10;99.90;;;;;;5075064;28;20028;-78
2022/09/27 01:01:01;;;;;;;10.40;5.70;;;10.10;99.90;;;;;;5075345;28;20046;-77
2022/09/27 01:03:38;;;;;;;8.38;5.97;;;10.10;99.90;;;;;;5095094;28;20039;-76
2022/09/27 01:06:07;;;;;;;6.05;2.72;;;10.00;99.90;;;;;;5094386;28;20345;-77
2022/09/27 01:08:34;;;;;;;6.30;2.15;;;10.10;99.90;;;;;;5094569;28;20031;-77
2022/09/27 01:11:33;;;;;;;6.75;3.20;;;10.10;99.90;;;;;;5094040;28;20052;-77
2022/09/27 01:14:21;;;;;;;3.22;2.35;;;10.10;99.90;;;;;;5077162;28;20036;-77
2022/09/27 01:17:21;;;;;;;3.85;2.33;;;10.00;99.90;;;;;;5094932;28;20028;-77
2022/09/27 01:20:21;;;;;;;4.53;2.20;;;10.00;99.90;;;;;;5090411;28;20036;-77
2022/09/27 01:23:06;;;;;;;4.47;2.78;;;10.00;99.90;;;;;;5077289;28;20047;-81
2022/09/27 01:25:59;;;;;;;4.07;3.33;;;10.00;99.90;;;;;;5092081;28;20036;-77
2022/09/27 01:28:50;;;;;;;4.55;2.80;;;10.00;99.90;;;;;;5076749;28;20473;-77
2022/09/27 01:31:38;;;;;;;4.72;2.90;;;10.10;99.90;;;;;;5093557;28;20366;-77
2022/09/27 01:34:18;;;;;;;6.57;3.45;;;10.10;99.90;;;;;;5093798;28;20118;-79
2022/09/27 01:36:56;;;;;;;7.40;4.22;;;10.10;99.90;;;;;;5092921;28;20032;-77
2022/09/27 01:39:43;;;;;;;6.18;3.83;;;10.10;99.90;;;;;;5092761;28;20028;-77
2022/09/27 01:42:49;;;;;;;4.70;2.53;;;10.00;99.90;;;;;;5060360;28;20381;-80
2022/09/27 01:45:24;;;;;;;4.55;2.38;;;10.00;99.90;;;;;;5092220;28;20047;-78
2022/09/27 01:48:14;;;;;;;5.00;3.92;;;10.10;99.90;;;;;;5093674;28;20357;-77
2022/09/27 01:51:03;;;;;;;6.05;3.03;;;10.00;99.90;;;;;;5078106;28;20036;-77
2022/09/27 01:53:37;;;;;;;5.55;3.28;;;10.00;99.90;;;;;;5092378;28;20044;-78
2022/09/27 01:56:48;;;;;;;4.07;2.63;;;10.10;99.90;;;;;;5093270;28;20036;-77
2022/09/27 01:59:39;;;;;;;6.40;3.00;;;10.00;99.90;;;;;;5068720;28;20032;-78
2022/09/27 02:02:27;;;;;;;7.43;3.63;;;10.10;99.90;;;;;;5078894;28;20383;-78
2022/09/27 02:05:16;;;;;;;7.13;2.15;;;10.10;99.90;;;;;;5099119;28;20042;-78
2022/09/27 02:07:52;;;;;;;4.85;2.00;;;10.10;99.90;;;;;;5076438;28;20032;-78
2022/09/27 02:10:30;;;;;;;4.07;1.80;;;10.00;99.90;;;;;;5092994;28;20032;-78
2022/09/27 02:13:09;;;;;;;5.82;1.58;;;10.00;99.90;;;;;;5093005;28;20040;-77
2022/09/27 02:15:49;;;;;;;3.83;2.00;;;10.00;99.90;;;;;;5085296;28;20050;-79
2022/09/27 02:18:35;;;;;;;4.55;1.52;;;10.10;99.90;;;;;;5077500;28;20376;-78
2022/09/27 02:21:05;;;;;;;3.22;1.38;;;10.00;99.90;;;;;;5092953;28;20036;-77
2022/09/27 02:23:50;;;;;;;;;;;10.10;99.90;;;;;;5097794;28;20040;-77
2022/09/27 02:26:21;;;;;;;7.25;2.03;;;10.10;99.90;;;;;;5092935;28;20225;-77
2022/09/27 02:28:55;;;;;;;3.72;2.10;;;10.10;99.90;;;;;;5099493;28;20043;-80
2022/09/27 02:31:28;;;;;;;7.88;2.60;;;10.10;99.90;;;;;;5099052;28;20035;-78
2022/09/27 02:34:22;;;;;;;5.82;3.00;;;10.10;99.90;;;;;;5095804;28;20036;-77
2022/09/27 02:36:52;;;;;;;6.10;2.55;;;10.00;99.90;;;;;;5092695;28;20036;-77
2022/09/27 02:39:19;;;;;;;5.82;2.17;;;10.10;99.90;;;;;;5091908;28;20040;-78
2022/09/27 02:41:48;;;;;;;3.63;1.80;;;10.10;99.90;;;;;;5092237;28;20048;-78
2022/09/27 02:44:17;;;;;;;5.60;2.00;;;10.00;99.90;;;;;;5091691;28;20480;-79
2022/09/27 02:47:05;;;;;;;7.35;2.17;;;10.00;99.90;;;;;;5091370;28;20044;-78
2022/09/27 02:49:40;;;;;;;6.80;2.92;;;10.00;99.90;;;;;;5091771;28;20047;-78
2022/09/27 02:53:07;;;;;;;5.38;2.50;;;10.00;99.90;;;;;;5080145;28;20488;-78
2022/09/27 02:56:21;;;;;;;7.97;3.40;;;10.00;99.90;;;;;;5090031;28;20077;-77
2022/09/27 02:59:22;;;;;;;9.18;3.13;;;10.00;99.90;;;;;;5084485;28;20032;-78
2022/09/27 03:02:24;;;;;;;3.97;2.38;;;10.10;99.90;;;;;;5087110;28;20036;-78
2022/09/27 03:05:29;;;;;;;5.88;2.83;;;10.10;99.90;;;;;;5075700;28;20488;-77
2022/09/27 03:07:55;;;;;;;9.15;2.85;;;10.10;99.90;;;;;;5090292;28;20035;-79
2022/09/27 03:10:25;;;;;;;4.70;2.47;;;10.10;99.90;;;;;;5073787;28;20035;-80
2022/09/27 03:12:53;;;;;;;4.45;2.25;;;10.20;99.90;;;;;;5092224;28;20503;-81
2022/09/27 03:15:19;;;;;;;6.20;2.20;;;10.30;99.90;;;;;;5091008;28;20040;-78
2022/09/27 03:18:02;;;;;;;5.30;1.90;;;10.30;99.90;;;;;;5093893;28;20043;-79
2022/09/27 03:20:47;;;;;;;4.38;2.72;;;10.20;99.90;;;;;;5093001;28;20028;-79
2022/09/27 03:23:16;;;;;;;4.57;2.22;;;10.20;99.90;;;;;;5091079;28;20036;-80
2022/09/27 03:25:42;;;;;;;3.90;2.08;;;10.10;99.90;;;;;;5086551;28;20036;-79
2022/09/27 03:28:12;;;;;;;4.90;1.60;;;10.20;99.90;;;;;;5092663;28;20039;-78
2022/09/27 03:30:41;;;;;;;2.33;1.27;;;10.30;99.90;;;;;;5091204;28;20039;-78
2022/09/27 03:33:08;;;;;;;3.55;1.40;;;10.30;99.90;;;;;;5091480;28;20047;-78
2022/09/27 03:35:51;;;;;;;5.75;1.52;;;10.20;99.90;;;;;;5091229;28;20035;-77
2022/09/27 03:38:17;;;;;;;2.70;2.03;;;10.20;99.90;;;;;;5093038;28;20443;-78
2022/09/27 03:40:43;;;;;;;4.00;1.65;;;10.20;99.90;;;;;;5090885;28;20039;-79
2022/09/27 03:43:10;;;;;;;3.90;1.92;;;10.30;99.90;;;;;;5091811;28;20477;-81
2022/09/27 03:45:37;;;;;;;2.85;2.10;;;10.20;99.90;;;;;;5089331;28;20457;-77
2022/09/27 03:48:06;;;;;;;5.18;1.77;;;10.20;99.90;;;;;;5084345;28;20040;-78
2022/09/27 03:50:33;;;;;;;6.30;1.48;;;10.20;99.90;;;;;;5090470;28;20046;-77
2022/09/27 03:52:59;;;;;;;3.15;1.50;;;10.10;99.90;;;;;;5086391;28;20035;-77
2022/09/27 03:55:26;;;;;;;3.25;1.40;;;10.10;99.90;;;;;;5090162;28;20050;-77
2022/09/27 03:57:52;;;;;;;2.35;1.20;;;10.10;99.90;;;;;;5091349;28;20047;-77
2022/09/27 04:00:19;;;;;;;1.67;0.80;;;10.10;99.90;;;;;;5090813;28;20047;-78
2022/09/27 04:02:46;;;;;;;2.88;1.08;;;10.10;99.90;;;;;;5091908;28;20043;-78
2022/09/27 04:05:26;;;;;;;3.47;1.10;;;10.10;99.90;;;;;;5084346;28;20032;-78
2022/09/27 04:08:05;;;;;;;2.85;1.75;;;10.10;99.90;;;;;;5085274;28;20349;-77
2022/09/27 04:10:32;;;;;;;2.13;1.17;;;10.10;99.90;;;;;;5090516;28;20040;-80
2022/09/27 04:12:59;;;;;;;2.25;1.40;;;10.10;99.90;;;;;;5090490;28;20066;-80
2022/09/27 04:15:29;;;;;;;5.22;1.95;;;10.10;99.90;;;;;;5088672;28;20047;-80
2022/09/27 04:18:25;;;;;;;2.33;0.95;;;10.10;99.90;;;;;;5037710;28;20042;-82
2022/09/27 04:20:54;;;;;;;2.88;0.93;;;10.00;99.90;;;;;;5091531;28;20425;-79
2022/09/27 04:23:20;;;;;;;4.18;2.30;;;10.10;99.90;;;;;;5087259;28;20453;-77
2022/09/27 04:25:51;;;;;;;2.38;1.30;;;10.10;99.90;;;;;;5075854;28;20507;-76
2022/09/27 04:28:29;;;;;;;2.33;1.45;;;10.10;99.90;;;;;;5090453;28;20452;-77
2022/09/27 04:30:55;;;;;;;1.63;0.90;;;10.10;99.90;;;;;;5090204;28;20039;-78
2022/09/27 04:33:49;;;;;;;2.53;0.77;;;10.10;99.90;;;;;;5089962;28;20503;-77
2022/09/27 04:36:27;;;;;;;1.75;0.70;;;10.00;99.90;;;;;;5090102;28;20028;-76
2022/09/27 04:39:05;;;;;;;2.90;1.17;;;10.10;99.90;;;;;;5085252;28;20036;-78
2022/09/27 04:41:35;;;;;;;4.00;0.75;;;10.10;99.90;;;;;;5089513;28;20031;-76
2022/09/27 04:44:02;;;;;;;3.67;1.00;;;10.10;99.90;;;;;;5089296;28;20044;-77
2022/09/27 04:46:33;;;;;;;1.45;0.60;;;10.10;99.90;;;;;;5090312;28;20036;-76
2022/09/27 04:49:00;;;;;;;1.50;0.73;;;10.20;99.90;;;;;;5090022;28;20369;-76
2022/09/27 04:51:28;;;;;;;2.22;0.90;;;10.30;99.90;;;;;;5086955;28;20028;-76
2022/09/27 04:53:56;;;;;;;3.25;0.80;;;10.20;99.90;;;;;;5089298;28;20040;-77
2022/09/27 04:56:26;;;;;;;;;;;10.20;99.90;;;;;;5090307;28;20123;-77
2022/09/27 04:58:53;;;;;;;2.88;0.90;;;10.20;99.90;;;;;;5089478;28;19904;-76
2022/09/27 05:01:20;;;;;;;2.25;0.90;;;10.10;99.90;;;;;;5087650;28;20047;-76
2022/09/27 05:03:58;;;;;;;2.58;1.10;;;10.10;99.90;;;;;;5096502;28;20039;-77
2022/09/27 05:06:25;;;;;;;2.50;0.80;;;10.10;99.90;;;;;;5090066;28;20055;-77
2022/09/27 05:08:54;;;;;;;1.88;0.85;;;10.00;99.90;;;;;;5089348;28;20043;-76
2022/09/27 05:11:26;;;;;;;5.13;0.95;;;10.00;99.90;;;;;;5090135;28;20059;-76
2022/09/27 05:14:21;;;;;;;2.58;0.80;;;10.00;99.90;;;;;;5071044;28;20051;-76
2022/09/27 05:17:03;;;;;;;1.05;0.63;;;10.00;99.90;;;;;;5092629;28;20043;-75
2022/09/27 05:19:29;;;;;;;2.20;0.82;;;9.90;99.90;;;;;;5095414;28;20032;-76
2022/09/27 05:21:55;;;;;;;1.25;0.70;;;9.90;99.90;;;;;;5094256;28;20039;-77
2022/09/27 05:24:21;;;;;;;2.33;0.60;;;9.90;99.90;;;;;;5072818;28;20043;-78
2022/09/27 05:26:48;;;;;;;3.08;0.95;;;9.90;99.90;;;;;;5093441;28;20028;-78
2022/09/27 05:29:14;;;;;;;1.75;0.55;;;10.10;99.90;;;;;;5094064;28;20036;-76
2022/09/27 05:31:46;;;;;;;2.53;0.77;;;10.10;99.90;;;;;;5093076;28;20366;-78
2022/09/27 05:34:13;;;;;;;3.08;0.70;;;10.10;99.90;;;;;;5092462;28;20055;-76
2022/09/27 05:36:49;;;;;;;1.98;0.65;;;10.10;99.90;;;;;;5093173;28;20369;-76
2022/09/27 05:39:16;;;;;;;3.28;0.77;;;10.10;99.90;;;;;;5089235;28;20047;-76
2022/09/27 05:41:43;;;;;;;3.30;0.85;;;10.10;99.90;;;;;;5091589;28;20059;-74
2022/09/27 05:44:09;;;;;;;2.53;1.95;;;10.00;99.90;;;;;;5091202;28;20040;-75
2022/09/27 05:46:41;;;;;;;1.80;0.40;;;10.00;99.90;;;;;;5092485;28;20055;-74
2022/09/27 05:49:08;;;;;;;2.63;0.77;;;9.90;99.90;;;;;;5093355;28;20376;-74
2022/09/27 05:51:34;;;;;;;1.67;0.63;;;10.00;99.90;;;;;;5093113;28;20488;-78
2022/09/27 05:54:00;;;;;;;1.65;0.60;;;10.00;99.90;;;;;;5092423;28;20380;-74
2022/09/27 05:56:28;;;;;;;1.27;0.60;;;10.10;99.90;;;;;;5093086;28;20047;-74
2022/09/27 05:59:12;;;;;;;1.95;0.88;;;10.10;99.90;;;;;;5078725;28;20048;-75
2022/09/27 06:02:01;;;;;;;4.38;0.50;;;10.10;99.90;;;;;;5074306;28;20049;-74
2022/09/27 06:04:54;;;;;;;2.53;0.47;;;10.20;99.90;;;;;;5064473;28;20263;-74
2022/09/27 06:07:39;;;;;;;1.75;0.50;;;10.20;99.90;;;;;;5073613;28;20047;-75
2022/09/27 06:10:10;;;;;;;2.17;0.57;;;10.20;99.90;;;;;;5055948;28;20059;-74
2022/09/27 06:12:37;;;;;;;2.25;0.60;;;10.20;99.90;;;;;;5054529;28;20052;-74
2022/09/27 06:15:08;;;;;;;1.10;0.57;;;10.20;99.90;;;;;;5055159;28;20052;-75
2022/09/27 06:17:39;;;;;;;1.63;0.95;;;10.30;99.90;;;;;;5055128;28;20048;-75
2022/09/27 06:20:17;;;;;;;2.17;0.88;;;10.30;99.90;;;;;;5050264;28;20040;-75
2022/09/27 06:22:45;;;;;;;5.25;1.02;;;10.30;99.90;;;;;;5054294;28;20151;-75
2022/09/27 06:25:12;;;;;;;2.28;0.85;;;10.40;99.90;;;;;;5065452;28;20480;-75
2022/09/27 06:27:52;;;;;;;2.20;0.98;;;10.40;99.90;;;;;;5054263;28;20121;-75
2022/09/27 06:30:26;;;;;;;1.98;0.70;;;10.50;99.90;;;;;;5054968;28;20085;-75
2022/09/27 06:33:00;;;;;;;3.33;1.45;;;10.50;99.90;;;;;;5053912;28;20044;-75
2022/09/27 06:35:49;;;;;;;1.10;0.50;;;10.60;99.90;;;;;;5053905;28;20044;-74
2022/09/27 06:38:20;;;;;;;3.15;0.47;;;10.60;99.90;;;;;;5055170;28;20474;-74
2022/09/27 06:40:52;;;;;;;1.58;0.50;;;10.60;99.90;;;;;;5038562;28;20052;-75
2022/09/27 06:43:30;;;;;;;1.52;0.60;;;10.60;99.90;;;;;;5051428;28;20044;-75
2022/09/27 06:46:14;;;;;;;1.08;0.45;;;10.60;99.90;;;;;;5055692;28;20040;-75
2022/09/27 06:48:52;;;;;;;2.25;0.40;;;10.70;99.90;;;;;;5056620;28;20126;-74
2022/09/27 06:51:19;;;;;;;0.65;0.40;;;10.70;99.90;;;;;;5056769;28;20048;-74
2022/09/27 06:54:03;;;;;;;1.58;0.43;;;10.70;99.90;;;;;;5077520;28;20041;-77
2022/09/27 06:56:30;;;;;;;1.40;0.75;;;10.70;99.90;;;;;;5060304;28;20059;-76
2022/09/27 07:01:43;;;;;;;0.68;0.30;;;10.70;99.90;;;;;;5072544;28;20057;-76
2022/09/27 07:04:28;;;;;;;3.17;1.05;;;10.70;99.90;;;;;;5072348;28;20047;-76
2022/09/27 07:07:03;;;;;;;4.80;3.15;;;10.80;99.90;;;;;;5073357;28;20032;-76
2022/09/27 07:09:37;;;;;;;3.63;1.63;;;10.90;99.90;;;;;;5054931;28;20496;-75
2022/09/27 07:12:05;;;;;;;3.78;1.27;;;10.90;99.90;;;;;;5054145;28;20055;-75
2022/09/27 07:14:33;;;;;;;1.75;0.57;;;10.90;99.90;;;;;;5070957;28;20389;-74
2022/09/27 07:17:00;;;;;;;0.98;0.40;;;11.00;99.90;;;;;;5053658;28;20048;-75
2022/09/27 07:19:32;;;;;;;1.08;0.50;;;11.00;99.90;;;;;;5054594;28;20048;-75
2022/09/27 07:21:58;;;;;;;4.10;0.30;;;11.00;99.90;;;;;;5053713;28;20051;-74
2022/09/27 07:24:25;;;;;;;1.80;0.52;;;11.00;99.90;;;;;;5053299;28;20044;-76
2022/09/27 07:26:51;;;;;;;1.05;0.30;;;11.00;99.90;;;;;;5053902;28;20520;-75
2022/09/27 07:29:20;;;;;;;1.90;0.52;;;11.10;99.90;;;;;;5054358;28;20036;-75
2022/09/27 07:31:48;;;;;;;2.60;0.65;;;11.10;99.90;;;;;;5053316;28;20390;-75
2022/09/27 07:34:17;;;;;;;1.27;0.88;;;11.00;99.90;;;;;;5071428;28;20036;-74
2022/09/27 07:36:43;;;;;;;2.20;0.68;;;11.00;99.90;;;;;;5053720;28;20040;-75
2022/09/27 07:39:09;;;;;;;3.63;0.80;;;10.90;99.90;;;;;;5053745;28;20048;-75
2022/09/27 07:41:38;;;;;;;0.93;0.35;;;10.90;99.90;;;;;;5052970;28;20040;-81
2022/09/27 07:44:06;;;;;;;2.08;0.68;;;10.90;99.90;;;;;;5071430;28;20354;-75
2022/09/27 07:46:42;;;;;;;2.65;0.50;;;11.00;99.90;;;;;;5039019;28;20044;-75
2022/09/27 07:49:18;;;;;;;0.50;0.30;;;11.10;99.90;;;;;;5054288;28;20044;-75
2022/09/27 07:51:50;;;;;;;0.88;0.40;;;11.20;99.90;;;;;;5069674;28;20059;-75
2022/09/27 07:54:33;;;;;;;1.05;0.40;;;11.30;99.90;;;;;;5052984;28;20059;-74
2022/09/27 07:57:05;;;;;;;1.05;0.40;;;11.40;99.90;;;;;;5078735;28;20040;-75
2022/09/27 07:59:37;;;;;;;0.45;0.30;;;11.40;99.90;;;;;;5053181;28;20048;-77
2022/09/27 08:02:06;;;;;;;2.72;0.50;;;11.40;99.90;;;;;;5089755;28;20036;-76
2022/09/27 08:04:32;;;;;;;2.05;0.60;;;11.30;99.90;;;;;;5089616;28;20044;-75
2022/09/27 08:06:58;;;;;;;1.73;0.77;;;11.30;99.90;;;;;;5090568;28;20044;-75
2022/09/27 08:09:25;;;;;;;1.80;0.57;;;11.30;99.90;;;;;;5092507;28;20362;-75
2022/09/27 08:11:57;;;;;;;0.88;0.32;;;11.40;99.90;;;;;;5090595;28;20400;-75
2022/09/27 08:14:23;;;;;;;2.55;0.47;;;11.40;99.90;;;;;;5090946;28;20056;-75
2022/09/27 08:16:50;;;;;;;1.08;0.50;;;11.40;99.90;;;;;;5090456;28;20043;-75
2022/09/27 08:19:33;;;;;;;1.98;0.40;;;11.40;99.90;;;;;;5084647;28;20362;-75
2022/09/27 08:22:13;;;;;;;1.80;0.30;;;11.50;99.90;;;;;;5090556;28;20047;-75
2022/09/27 08:24:52;;;;;;;2.70;0.30;;;11.70;99.90;;;;;;5089007;28;20480;-75
2022/09/27 08:27:37;;;;;;;2.17;0.47;;;11.80;99.90;;;;;;5092198;28;20050;-82
2022/09/27 08:30:17;;;;;;;0.50;0.20;;;11.90;99.90;;;;;;5085644;28;20044;-76
2022/09/27 08:32:44;;;;;;;2.28;0.30;;;12.00;99.90;;;;;;5089545;28;20051;-75
2022/09/27 08:35:10;;;;;;;2.53;0.40;;;12.20;99.90;;;;;;5091416;28;20028;-76
2022/09/27 08:37:37;;;;;;;0.82;0.40;;;12.20;99.90;;;;;;5090357;28;20036;-82
2022/09/27 08:40:06;;;;;;;0.98;0.40;;;12.30;99.90;;;;;;5090300;28;20040;-75
2022/09/27 08:42:53;;;;;;;4.70;0.50;;;12.00;99.90;;;;;;5089217;28;20051;-75
2022/09/27 08:45:29;;;;;;;1.23;0.40;;;11.90;99.90;;;;;;5089370;28;20062;-75
2022/09/27 08:48:00;;;;;;;1.60;0.40;;;11.80;99.90;;;;;;5089692;28;20054;-76
2022/09/27 08:50:31;;;;;;;1.92;0.40;;;11.70;99.90;;;;;;5090504;28;20043;-76
2022/09/27 08:53:13;;;;;;;1.85;0.45;;;11.80;99.90;;;;;;5093434;28;20040;-75
2022/09/27 08:55:41;;;;;;;1.30;0.35;;;12.00;99.90;;;;;;5092644;28;20044;-77
2022/09/27 08:58:21;;;;;;;0.40;0.20;;;12.20;99.90;;;;;;5094064;28;20040;-75
2022/09/27 09:00:54;;;;;;;1.83;0.40;;;12.10;99.90;;;;;;5093065;28;20477;-75
2022/09/27 09:03:24;;;;;;;1.05;0.32;;;12.10;99.90;;;;;;5093936;28;20514;-76
2022/09/27 09:06:04;;;;;;;2.25;0.40;;;12.10;99.90;;;;;;5092910;28;20392;-75
2022/09/27 09:08:49;;;;;;;0.75;0.38;;;12.00;99.90;;;;;;5093423;28;20052;-75
2022/09/27 09:14:03;;;;;;;2.58;0.73;;;12.10;99.90;;;;;;5087695;28;20044;-74
2022/09/27 09:16:42;;;;;;;0.80;0.40;;;12.40;99.90;;;;;;5093966;28;20511;-75
2022/09/27 09:19:17;;;;;;;1.65;0.50;;;12.50;99.90;;;;;;5093603;28;20043;-75
2022/09/27 09:22:33;;;;;;;1.02;0.45;;;12.50;99.90;;;;;;5094016;28;20040;-75
2022/09/27 09:25:08;;;;;;;0.90;0.45;;;12.80;99.90;;;;;;5091867;28;20063;-75
2022/09/27 09:27:37;;;;;;;2.42;0.80;;;13.20;99.90;;;;;;5093510;28;20035;-75
2022/09/27 09:30:24;;;;;;;0.80;0.35;;;13.00;99.90;;;;;;5093006;28;20468;-74
2022/09/27 09:32:59;;;;;;;2.72;0.40;;;12.90;99.90;;;;;;5087171;28;20051;-75
2022/09/27 09:35:41;;;;;;;1.90;0.55;;;12.90;99.90;;;;;;5092465;28;20048;-76
2022/09/27 09:38:39;;;;;;;2.50;0.70;;;12.50;99.90;;;;;;5095336;28;20032;-76
2022/09/27 09:41:28;;;;;;;3.42;1.08;;;12.40;99.90;;;;;;5097657;28;20370;-76
2022/09/27 09:44:16;;;;;;;2.08;0.52;;;12.50;99.90;;;;;;5091620;28;20051;-75
2022/09/27 09:46:48;;;;;;;1.67;0.95;;;12.60;99.90;;;;;;5081974;28;20466;-76
2022/09/27 09:49:25;;;;;;;1.98;0.70;;;12.60;99.90;;;;;;5093831;28;20051;-75
2022/09/27 09:51:56;;;;;;;1.33;0.50;;;12.80;99.90;;;;;;5092634;28;20047;-75
2022/09/27 09:54:32;;;;;;;2.25;0.70;;;12.90;99.90;;;;;;5092005;28;20055;-76
2022/09/27 09:57:16;;;;;;;2.25;0.55;;;12.80;99.90;;;;;;5092837;28;20338;-75
2022/09/27 09:59:59;;;;;;;1.75;0.55;;;12.50;99.90;;;;;;5092120;28;20035;-74
2022/09/27 10:02:37;;;;;;;5.22;0.70;;;12.40;99.90;;;;;;5072755;28;20040;-74
2022/09/27 10:05:17;;;;;;;0.45;0.38;;;12.40;99.90;;;;;;5055199;28;20049;-75
2022/09/27 10:07:44;;;;;;;1.98;0.68;;;12.30;99.90;;;;;;5055355;28;20044;-75
2022/09/27 10:10:15;;;;;;;2.90;0.80;;;12.40;99.90;;;;;;5074395;28;20044;-74
2022/09/27 10:13:02;;;;;;;3.85;1.92;;;12.50;99.90;;;;;;5006123;28;20057;-74
2022/09/27 10:15:33;;;;;;;1.85;0.70;;;12.70;99.90;;;;;;5054728;28;20041;-75
2022/09/27 10:17:59;;;;;;;1.63;0.70;;;12.50;99.90;;;;;;5055277;28;20115;-75
2022/09/27 10:20:33;;;;;;;1.52;0.65;;;12.50;99.90;;;;;;5074090;28;20037;-75
2022/09/27 10:23:15;;;;;;;0.70;0.45;;;12.60;99.90;;;;;;5054689;28;20397;-75
2022/09/27 10:26:03;;;;;;;0.93;0.43;;;12.60;99.90;;;;;;5070637;28;20051;-76
2022/09/27 10:28:46;;;;;;;1.67;0.77;;;12.40;99.90;;;;;;5054912;28;20067;-77
2022/09/27 10:31:19;;;;;;;1.40;0.68;;;12.40;99.90;;;;;;5055266;28;20037;-76
2022/09/27 10:34:18;;;;;;;2.17;0.85;;;12.40;99.90;;;;;;5054518;28;20051;-75
2022/09/27 10:37:03;;;;;;;2.67;1.23;;;12.40;99.90;;;;;;5055424;28;20053;-76
2022/09/27 10:39:30;;;;;;;2.58;1.35;;;12.40;99.90;;;;;;5055459;28;20041;-76
2022/09/27 10:41:57;;;;;;;2.88;1.60;;;12.20;99.90;;;;;;5054506;28;20493;-76
2022/09/27 10:44:38;;;;;;;4.82;3.47;;;12.20;99.90;;;;;;5054268;28;20059;-76
2022/09/27 10:47:22;;;;;;;3.38;1.77;;;12.30;99.90;;;;;;5055729;28;20465;-77
2022/09/27 10:50:08;;;;;;;3.85;1.67;;;12.40;99.90;;;;;;5054740;28;20045;-76
2022/09/27 10:53:02;;;;;;;2.53;1.08;;;12.60;99.90;;;;;;5053895;28;20051;-76
2022/09/27 10:55:35;;;;;;;2.10;0.77;;;13.10;99.90;;;;;;5047494;28;20075;-77
2022/09/27 10:58:03;;;;;;;2.65;0.80;;;13.50;99.90;;;;;;5034695;28;20048;-77
2022/09/27 11:00:35;;;;;;;1.10;0.70;;;13.90;99.90;;;;;;5065085;28;20378;-77
2022/09/27 11:03:07;;;;;;;2.15;0.90;;;14.00;99.90;;;;;;5082683;28;20225;-76
2022/09/27 11:05:38;;;;;;;4.60;1.42;;;13.80;99.90;;;;;;5088266;28;20051;-77
2022/09/27 11:08:31;;;;;;;3.38;1.05;;;13.50;99.90;;;;;;5092917;28;20028;-76
2022/09/27 11:11:12;;;;;;;3.00;0.73;;;13.30;99.90;;;;;;5091331;28;20397;-76
2022/09/27 11:13:40;;;;;;;2.83;1.50;;;13.30;99.90;;;;;;5077054;28;20389;-76
2022/09/27 11:16:35;;;;;;;1.73;0.70;;;13.50;99.90;;;;;;5086345;28;20048;-77
2022/09/27 11:19:33;;;;;;;1.23;0.65;;;13.70;99.90;;;;;;5093791;28;20039;-77
2022/09/27 11:22:18;;;;;;;1.98;0.82;;;14.10;99.90;;;;;;5078288;28;20040;-77
2022/09/27 11:25:01;;;;;;;3.33;0.85;;;14.30;99.90;;;;;;5099531;28;20110;-76
2022/09/27 11:27:48;;;;;;;3.05;1.30;;;14.10;99.90;;;;;;5096959;28;20051;-76
2022/09/27 11:30:20;;;;;;;2.67;1.17;;;14.30;99.90;;;;;;5085675;28;20036;-77
2022/09/27 11:33:49;;;;;;;2.75;0.70;;;14.00;99.90;;;;;;5091788;28;20040;-79
2022/09/27 11:36:31;;;;;;;4.75;1.98;;;14.10;99.90;;;;;;5069085;28;20059;-76
2022/09/27 11:39:16;;;;;;;2.83;1.40;;;13.80;99.90;;;;;;5091098;28;20040;-76
2022/09/27 11:42:05;;;;;;;2.30;0.80;;;13.60;99.90;;;;;;5090517;28;20330;-77
2022/09/27 11:44:57;;;;;;;2.75;1.45;;;13.20;99.90;;;;;;5073002;28;20594;-76
2022/09/27 11:47:59;;;;;;;5.57;2.00;;;13.10;99.90;;;;;;5091097;28;20397;-76
2022/09/27 11:51:04;;;;;;;1.38;0.80;;;13.00;99.90;;;;;;5074200;28;20519;-77
2022/09/27 11:53:55;;;;;;;1.52;0.60;;;12.70;99.90;;;;;;5086580;28;20040;-76
2022/09/27 11:56:37;;;;;;;1.65;0.70;;;12.30;99.90;;;;;;5091032;28;20044;-76
2022/09/27 11:59:09;;;;;;;1.25;0.38;;;12.10;99.90;;;;;;5090484;28;20044;-76
2022/09/27 12:02:15;;;;;;;1.38;0.77;;;11.90;99.90;;;;;;5090207;28;20051;-74
2022/09/27 12:05:03;;;;;;;2.53;0.93;;;12.00;99.90;;;;;;5083737;28;20044;-75
2022/09/27 12:07:35;;;;;;;3.13;0.80;;;12.30;99.90;;;;;;5090872;28;20477;-75
2022/09/27 12:10:08;;;;;;;2.30;0.88;;;12.20;99.90;;;;;;5090914;28;20481;-75
2022/09/27 12:12:39;;;;;;;2.38;1.25;;;12.20;99.90;;;;;;5091408;28;20389;-75
2022/09/27 12:15:17;;;;;;;2.00;0.82;;;12.50;99.90;;;;;;5091365;28;20492;-75
2022/09/27 12:17:48;;;;;;;3.08;1.45;;;13.00;99.90;;;;;;5075006;28;20074;-75
2022/09/27 12:20:33;;;;;;;4.38;1.30;;;13.40;99.90;;;;;;5090687;28;20059;-77
2022/09/27 12:23:10;;;;;;;1.20;0.88;;;13.90;99.90;;;;;;5089965;28;20369;-77
2022/09/27 12:25:54;;;;;;;2.30;0.90;;;14.00;99.90;;;;;;5089217;28;20385;-75
2022/09/27 12:28:39;;;;;;;1.63;1.00;;;14.20;99.90;;;;;;5090731;28;20044;-74
2022/09/27 12:31:18;;;;;;;1.80;0.75;;;14.30;99.90;;;;;;5089632;28;20036;-75
2022/09/27 12:34:12;;;;;;;2.97;0.93;;;14.70;99.90;;;;;;5089449;28;20048;-75
2022/09/27 12:36:43;;;;;;;2.70;0.80;;;14.80;98.40;;;;;;5090541;28;20074;-76
2022/09/27 12:39:48;;;;;;;2.63;0.55;;;14.80;97.60;;;;;;5090237;28;20384;-75
2022/09/27 12:42:37;;;;;;;2.42;0.70;;;15.10;95.60;;;;;;5086035;28;20067;-76
2022/09/27 12:45:20;;;;;;;2.08;0.60;;;15.50;94.70;;;;;;5089050;28;20048;-75
2022/09/27 12:48:07;;;;;;;1.45;0.75;;;15.60;93.40;;;;;;5090847;28;20040;-75
2022/09/27 12:50:36;;;;;;;1.80;0.50;;;15.60;93.90;;;;;;5101251;28;20047;-76
2022/09/27 12:53:22;;;;;;;1.60;0.70;;;15.70;92.80;;;;;;5088864;28;20044;-76
2022/09/27 12:56:10;;;;;;;1.48;0.52;;;16.00;91.50;;;;;;5090238;28;20059;-83
2022/09/27 12:58:43;;;;;;;1.52;0.40;;;16.30;89.60;;;;;;5090821;28;20366;-75
2022/09/27 13:01:35;;;;;;;1.15;0.65;;;16.00;90.60;;;;;;5088944;28;20044;-76
2022/09/27 13:04:36;;;;;;;6.55;0.52;;;15.60;91.00;;;;;;5101494;28;20036;-76
2022/09/27 13:07:47;;;;;;;2.53;0.63;;;15.40;92.10;;;;;;5089985;28;20044;-76
2022/09/27 13:10:28;;;;;;;1.60;0.52;;;14.90;93.10;;;;;;5065697;28;20052;-75
2022/09/27 13:12:59;;;;;;;1.77;1.00;;;14.60;94.70;;;;;;5088988;28;20052;-75
2022/09/27 13:15:32;;;;;;;3.47;0.50;;;14.40;94.50;;;;;;5090352;28;20052;-76
2022/09/27 13:18:04;;;;;;;2.30;0.80;;;14.20;96.50;;;;;;5089036;28;20047;-77
2022/09/27 13:20:45;;;;;;;1.95;0.70;;;14.00;97.30;;;;;;5089847;28;20036;-76
2022/09/27 13:23:28;;;;;;;2.67;1.08;;;13.80;97.90;;;;;;5089668;28;20063;-77
2022/09/27 13:25:59;;;;;;;3.40;0.50;;;13.60;98.10;;;;;;5092675;28;20040;-77
2022/09/27 13:28:48;;;;;;;2.40;0.55;;;13.50;99.50;;;;;;5086747;28;20043;-78
2022/09/27 13:32:11;;;;;;;2.45;0.57;;;13.30;99.60;;;;;;5089927;28;20047;-77
2022/09/27 13:35:09;;;;;;;1.48;0.50;;;13.30;99.90;;;;;;5063986;28;20051;-77
2022/09/27 13:37:54;;;;;;;0.90;0.60;;;13.20;99.70;;;;;;5077595;28;20051;-78
2022/09/27 13:40:32;;;;;;;1.77;0.50;;;13.00;99.90;;;;;;5093236;28;20472;-76
2022/09/27 13:43:12;;;;;;;0.73;0.32;;;12.80;99.90;;;;;;5091800;28;20214;-76
2022/09/27 13:45:59;;;;;;;2.25;0.40;;;12.80;99.90;;;;;;5093476;28;20388;-78